createdAt,value
2019-03-31T00:00:02.019Z,26.07
2019-03-31T00:02:59.849Z,24.03
2019-03-31T00:05:36.960Z,23.43
2019-03-31T00:08:18.498Z,22.70
2019-03-31T00:10:52.123Z,23.07
2019-03-31T00:13:30.834Z,25.67
2019-03-31T00:16:05.411Z,24.37
2019-03-31T00:18:39.119Z,22.50
2019-03-31T00:21:12.827Z,23.87
2019-03-31T00:24:01.653Z,23.47
2019-03-31T00:26:35.350Z,19.93
2019-03-31T00:29:08.935Z,21.00
2019-03-31T00:31:49.203Z,17.70
2019-03-31T00:34:23.283Z,17.13
2019-03-31T00:37:02.107Z,15.97
2019-03-31T00:39:39.091Z,17.77
2019-03-31T00:42:12.713Z,16.97
2019-03-31T00:44:58.573Z,15.47
2019-03-31T00:47:32.240Z,14.73
2019-03-31T00:50:32.763Z,15.20
2019-03-31T00:53:06.378Z,15.70
2019-03-31T00:55:43.247Z,14.87
2019-03-31T00:58:16.917Z,14.03
2019-03-31T01:01:06.176Z,15.13
2019-03-31T01:03:39.950Z,13.57
2019-03-31T01:06:15.709Z,14.80
2019-03-31T01:08:51.726Z,13.70
2019-03-31T01:11:25.771Z,13.30
2019-03-31T01:13:59.733Z,13.77
2019-03-31T01:16:53.969Z,14.33
2019-03-31T01:19:27.832Z,14.30
2019-03-31T01:22:03.412Z,14.30
2019-03-31T01:24:37.144Z,14.43
2019-03-31T01:27:11.072Z,14.77
2019-03-31T01:29:44.694Z,12.97
2019-03-31T01:32:35.576Z,15.33
2019-03-31T01:35:10.322Z,13.47
2019-03-31T01:37:47.356Z,14.13
2019-03-31T01:40:36.486Z,14.20
2019-03-31T01:43:10.212Z,12.93
2019-03-31T01:45:43.850Z,14.57
2019-03-31T01:48:29.504Z,12.83
2019-03-31T01:51:03.297Z,12.77
2019-03-31T01:53:42.821Z,13.30
2019-03-31T01:56:16.554Z,13.93
2019-03-31T01:58:55.324Z,13.10
2019-03-31T02:01:28.978Z,12.80
2019-03-31T02:04:07.712Z,12.57
2019-03-31T02:06:41.380Z,11.60
2019-03-31T02:09:17.299Z,12.33
2019-03-31T02:11:50.929Z,11.13
2019-03-31T02:14:31.447Z,11.77
2019-03-31T02:17:05.246Z,10.63
2019-03-31T02:19:38.806Z,10.43
2019-03-31T02:22:21.108Z,9.80
2019-03-31T02:24:54.726Z,10.13
2019-03-31T02:27:33.059Z,9.90
2019-03-31T02:30:08.366Z,9.50
2019-03-31T02:32:45.886Z,9.27
2019-03-31T02:35:19.520Z,7.60
2019-03-31T02:38:00.593Z,8.70
2019-03-31T02:40:39.583Z,9.00
2019-03-31T02:43:13.244Z,8.30
2019-03-31T02:45:49.203Z,8.63
2019-03-31T02:48:22.862Z,8.07
2019-03-31T02:51:00.653Z,7.87
2019-03-31T02:53:34.416Z,8.93
2019-03-31T02:56:12.130Z,7.83
2019-03-31T02:58:46.837Z,9.73
2019-03-31T03:01:27.477Z,8.90
2019-03-31T03:04:02.183Z,9.90
2019-03-31T03:06:36.868Z,10.30
2019-03-31T03:09:12.106Z,9.90
2019-03-31T03:11:47.256Z,10.50
2019-03-31T03:14:27.699Z,10.57
2019-03-31T03:17:01.468Z,11.17
2019-03-31T03:19:42.747Z,11.00
2019-03-31T03:22:16.457Z,10.43
2019-03-31T03:24:50.109Z,9.10
2019-03-31T03:27:28.886Z,10.63
2019-03-31T03:30:02.583Z,10.13
2019-03-31T03:33:12.569Z,11.37
2019-03-31T03:35:20.161Z,11.33
2019-03-31T03:37:53.800Z,13.20
2019-03-31T03:40:27.396Z,11.97
2019-03-31T03:43:02.216Z,11.20
2019-03-31T03:45:35.919Z,11.43
2019-03-31T03:48:14.108Z,11.00
2019-03-31T03:50:47.847Z,9.90
2019-03-31T03:53:27.828Z,9.97
2019-03-31T03:56:01.599Z,9.63
2019-03-31T03:58:44.805Z,8.37
2019-03-31T04:01:19.765Z,7.80
2019-03-31T04:03:57.729Z,8.00
2019-03-31T04:06:31.466Z,7.37
2019-03-31T04:09:06.556Z,7.43
2019-03-31T04:11:40.236Z,6.90
2019-03-31T04:14:43.596Z,6.00
2019-03-31T04:17:17.195Z,6.77
2019-03-31T04:19:50.818Z,6.17
2019-03-31T04:22:24.402Z,5.10
2019-03-31T04:25:01.404Z,4.60
2019-03-31T04:27:35.047Z,3.60
2019-03-31T04:30:15.474Z,2.87
2019-03-31T04:32:49.267Z,2.07
2019-03-31T04:35:29.323Z,1.93
2019-03-31T04:38:02.918Z,1.73
2019-03-31T04:40:46.254Z,1.47
2019-03-31T04:43:43.377Z,1.40
2019-03-31T04:46:17.068Z,1.10
2019-03-31T04:49:02.918Z,0.83
2019-03-31T04:51:36.626Z,1.00
2019-03-31T04:54:10.589Z,1.00
2019-03-31T04:56:44.186Z,1.07
2019-03-31T04:59:42.184Z,1.20
2019-03-31T05:02:15.766Z,1.13
2019-03-31T05:05:34.865Z,1.20
2019-03-31T05:08:08.447Z,1.30
2019-03-31T05:10:48.135Z,1.40
2019-03-31T05:13:21.752Z,1.37
2019-03-31T05:16:01.323Z,1.53
2019-03-31T05:18:34.987Z,1.53
2019-03-31T05:21:20.663Z,1.13
2019-03-31T05:23:54.240Z,1.43
2019-03-31T05:26:30.318Z,1.13
2019-03-31T05:29:03.918Z,1.00
2019-03-31T05:31:37.542Z,1.40
2019-03-31T05:34:19.773Z,1.57
2019-03-31T05:36:53.487Z,1.60
2019-03-31T05:39:27.096Z,1.23
2019-03-31T05:42:08.620Z,1.67
2019-03-31T05:44:42.363Z,1.63
2019-03-31T05:47:16.052Z,1.13
2019-03-31T05:49:53.018Z,1.17
2019-03-31T05:52:26.620Z,1.77
2019-03-31T05:55:02.923Z,1.73
2019-03-31T05:57:36.541Z,2.17
2019-03-31T06:00:30.599Z,1.13
2019-03-31T06:03:04.640Z,1.30
2019-03-31T06:05:48.601Z,2.20
2019-03-31T06:08:22.304Z,1.60
2019-03-31T06:10:56.013Z,1.67
2019-03-31T06:13:29.834Z,1.57
2019-03-31T06:16:03.479Z,1.80
2019-03-31T06:18:37.686Z,1.40
2019-03-31T06:21:11.282Z,1.37
2019-03-31T06:23:47.914Z,1.87
2019-03-31T06:26:21.448Z,1.80
2019-03-31T06:29:00.272Z,1.77
2019-03-31T06:31:34.023Z,1.23
2019-03-31T06:34:07.614Z,1.50
2019-03-31T06:36:41.356Z,1.43
2019-03-31T06:39:14.951Z,1.80
2019-03-31T06:41:50.607Z,1.47
2019-03-31T06:44:30.367Z,1.80
2019-03-31T06:47:03.948Z,1.70
2019-03-31T06:49:47.024Z,2.17
2019-03-31T06:52:22.918Z,1.77
2019-03-31T06:54:56.501Z,1.83
2019-03-31T06:57:33.262Z,1.63
2019-03-31T07:00:07.953Z,1.67
2019-03-31T07:02:51.389Z,1.60
2019-03-31T07:05:25.093Z,1.30
2019-03-31T07:08:06.167Z,1.83
2019-03-31T07:10:39.906Z,1.60
2019-03-31T07:13:17.935Z,1.75
2019-03-31T07:15:52.181Z,2.15
2019-03-31T07:18:28.239Z,1.57
2019-03-31T07:21:02.452Z,1.67
2019-03-31T07:23:43.498Z,1.43
2019-03-31T07:26:17.903Z,1.75
2019-03-31T07:28:51.509Z,2.27
2019-03-31T07:31:25.985Z,1.50
2019-03-31T07:34:00.274Z,2.00
2019-03-31T07:36:34.726Z,1.50
2019-03-31T07:39:09.282Z,2.10
2019-03-31T07:41:55.880Z,1.77
2019-03-31T07:44:34.085Z,1.70
2019-03-31T07:47:08.266Z,1.62
2019-03-31T07:49:45.875Z,1.42
2019-03-31T07:52:20.129Z,1.60
2019-03-31T07:54:56.092Z,1.37
2019-03-31T07:57:30.323Z,1.47
2019-03-31T08:00:07.646Z,1.07
2019-03-31T08:02:41.886Z,1.02
2019-03-31T08:05:32.460Z,1.45
2019-03-31T08:07:57.232Z,1.22
2019-03-31T08:10:35.667Z,1.32
2019-03-31T08:13:09.862Z,1.27
2019-03-31T08:16:03.433Z,1.42
2019-03-31T08:18:37.776Z,1.42
2019-03-31T08:21:12.014Z,1.40
2019-03-31T08:23:49.607Z,1.35
2019-03-31T08:26:23.779Z,1.57
2019-03-31T08:29:04.644Z,1.60
2019-03-31T08:31:38.906Z,1.40
2019-03-31T08:34:13.554Z,1.52
2019-03-31T08:36:47.755Z,1.10
2019-03-31T08:39:26.646Z,1.30
2019-03-31T08:42:00.855Z,1.22
2019-03-31T08:44:35.004Z,1.35
2019-03-31T08:47:17.079Z,1.47
2019-03-31T08:49:51.237Z,1.22
2019-03-31T08:52:27.795Z,1.42
2019-03-31T08:55:02.187Z,1.40
2019-03-31T08:57:37.645Z,1.27
2019-03-31T09:00:13.996Z,1.47
2019-03-31T09:03:00.673Z,1.00
2019-03-31T09:05:34.894Z,1.37
2019-03-31T09:08:21.120Z,1.00
2019-03-31T09:10:55.318Z,1.15
2019-03-31T09:13:38.694Z,1.25
2019-03-31T09:16:13.079Z,1.27
2019-03-31T09:18:47.246Z,1.32
2019-03-31T09:21:56.771Z,1.17
2019-03-31T09:24:31.204Z,1.30
2019-03-31T09:27:05.566Z,1.40
2019-03-31T09:29:40.141Z,1.67
2019-03-31T09:32:28.102Z,1.50
2019-03-31T09:35:02.331Z,1.45
2019-03-31T09:37:51.652Z,1.40
2019-03-31T09:40:25.909Z,1.15
2019-03-31T09:43:00.384Z,1.40
2019-03-31T09:45:46.815Z,1.55
2019-03-31T09:48:21.110Z,1.62
2019-03-31T09:51:01.162Z,1.25
2019-03-31T09:53:35.708Z,1.60
2019-03-31T09:56:22.158Z,1.40
2019-03-31T09:58:56.329Z,1.77
2019-03-31T10:01:51.476Z,1.60
2019-03-31T10:04:25.720Z,1.60
2019-03-31T10:07:03.315Z,1.75
2019-03-31T10:09:38.539Z,1.57
2019-03-31T10:12:12.936Z,1.77
2019-03-31T10:14:47.183Z,1.82
2019-03-31T10:17:28.720Z,1.50
2019-03-31T10:20:03.135Z,1.70
2019-03-31T10:22:57.433Z,1.15
2019-03-31T10:25:31.760Z,2.17
2019-03-31T10:28:36.943Z,1.37
2019-03-31T10:31:11.193Z,1.47
2019-03-31T10:36:23.760Z,1.72
2019-03-31T10:38:57.933Z,1.55
2019-03-31T10:41:33.467Z,1.42
2019-03-31T10:44:07.715Z,1.30
2019-03-31T10:46:41.860Z,1.57
2019-03-31T10:49:16.486Z,1.55
2019-03-31T10:51:50.671Z,1.45
2019-03-31T10:54:24.952Z,1.22
2019-03-31T10:56:59.139Z,1.80
2019-03-31T10:59:33.275Z,1.55
2019-03-31T11:02:07.694Z,3.08
2019-03-31T11:04:41.877Z,1.47
2019-03-31T11:07:16.147Z,1.47
2019-03-31T11:09:50.338Z,1.90
2019-03-31T11:12:24.496Z,1.62
2019-03-31T11:17:36.258Z,1.27
2019-03-31T11:20:11.756Z,1.60
2019-03-31T11:22:53.539Z,1.70
2019-03-31T11:25:29.311Z,1.62
2019-03-31T11:28:03.524Z,1.32
2019-03-31T11:30:37.743Z,1.42
2019-03-31T11:33:11.932Z,1.30
2019-03-31T11:35:46.078Z,1.20
2019-03-31T11:38:20.184Z,2.17
2019-03-31T11:40:55.551Z,2.40
2019-03-31T11:43:31.286Z,1.40
2019-03-31T11:46:05.464Z,1.10
2019-03-31T11:48:39.608Z,1.15
2019-03-31T11:51:13.727Z,1.40
2019-03-31T11:53:51.457Z,1.67
2019-03-31T11:56:25.730Z,1.30
2019-03-31T11:59:20.715Z,1.40
2019-03-31T12:01:53.903Z,1.07
2019-03-31T12:04:57.093Z,1.30
2019-03-31T12:07:45.678Z,1.55
2019-03-31T12:10:07.545Z,1.05
2019-03-31T12:12:41.804Z,0.82
2019-03-31T12:15:16.006Z,1.42
2019-03-31T12:17:50.287Z,1.10
2019-03-31T12:20:28.367Z,1.10
2019-03-31T12:23:02.055Z,1.00
2019-03-31T12:25:57.463Z,1.10
2019-03-31T12:28:31.776Z,1.02
2019-03-31T12:31:05.987Z,0.80
2019-03-31T12:33:49.684Z,0.90
2019-03-31T12:36:23.958Z,1.22
2019-03-31T12:39:27.090Z,1.05
2019-03-31T12:42:01.389Z,1.27
2019-03-31T12:44:57.370Z,1.00
2019-03-31T12:47:31.679Z,1.47
2019-03-31T12:50:27.472Z,1.05
2019-03-31T12:53:02.086Z,1.17
2019-03-31T12:55:36.327Z,0.95
2019-03-31T12:58:26.358Z,0.90
2019-03-31T13:01:00.634Z,0.80
2019-03-31T13:03:52.119Z,0.88
2019-03-31T13:06:26.455Z,0.80
2019-03-31T13:09:05.485Z,0.80
2019-03-31T13:11:39.200Z,0.83
2019-03-31T13:14:16.610Z,0.80
2019-03-31T13:16:51.177Z,0.95
2019-03-31T13:19:28.602Z,1.10
2019-03-31T13:22:02.297Z,0.60
2019-03-31T13:24:44.405Z,1.13
2019-03-31T13:27:18.071Z,0.87
2019-03-31T13:29:59.241Z,1.00
2019-03-31T13:32:32.862Z,0.70
2019-03-31T13:35:08.726Z,0.80
2019-03-31T13:37:42.503Z,0.70
2019-03-31T13:40:16.277Z,1.07
2019-03-31T13:42:55.041Z,0.97
2019-03-31T13:45:28.781Z,1.00
2019-03-31T13:48:09.759Z,0.77
2019-03-31T13:50:43.459Z,0.90
2019-03-31T13:53:17.118Z,0.97
2019-03-31T13:55:50.810Z,1.10
2019-03-31T13:58:25.515Z,0.60
2019-03-31T14:01:08.532Z,0.67
2019-03-31T14:03:42.130Z,1.13
2019-03-31T14:06:15.833Z,1.07
2019-03-31T14:08:54.016Z,1.10
2019-03-31T14:11:27.740Z,0.90
2019-03-31T14:14:18.785Z,1.00
2019-03-31T14:16:52.432Z,0.80
2019-03-31T14:19:31.100Z,1.10
2019-03-31T14:22:04.862Z,1.10
2019-03-31T14:24:38.563Z,0.60
2019-03-31T14:27:24.523Z,0.70
2019-03-31T14:29:58.123Z,1.03
2019-03-31T14:32:32.306Z,0.87
2019-03-31T14:35:06.318Z,0.90
2019-03-31T14:37:41.583Z,1.03
2019-03-31T14:40:15.241Z,0.80
2019-03-31T14:43:01.618Z,0.73
2019-03-31T14:45:35.854Z,0.70
2019-03-31T14:48:17.874Z,0.60
2019-03-31T14:50:51.511Z,0.80
2019-03-31T14:53:33.255Z,0.93
2019-03-31T14:56:06.878Z,0.70
2019-03-31T14:58:40.546Z,1.00
2019-03-31T15:01:21.815Z,0.70
2019-03-31T15:03:55.426Z,0.73
2019-03-31T15:06:33.790Z,0.80
2019-03-31T15:09:08.743Z,1.03
2019-03-31T15:11:48.942Z,0.90
2019-03-31T15:14:22.538Z,0.70
2019-03-31T15:17:04.879Z,0.60
2019-03-31T15:19:38.481Z,0.60
2019-03-31T15:22:15.742Z,0.63
2019-03-31T15:24:49.435Z,0.50
2019-03-31T15:27:30.484Z,0.70
2019-03-31T15:30:06.551Z,0.50
2019-03-31T15:32:41.263Z,0.60
2019-03-31T15:35:15.135Z,0.70
2019-03-31T15:37:52.014Z,0.70
2019-03-31T15:40:25.711Z,0.77
2019-03-31T15:42:59.366Z,0.70
2019-03-31T15:45:35.418Z,0.70
2019-03-31T15:48:09.054Z,0.67
2019-03-31T15:50:55.582Z,0.70
2019-03-31T15:56:05.858Z,0.60
2019-03-31T15:58:46.922Z,0.60
2019-03-31T16:01:20.547Z,0.70
2019-03-31T16:04:02.989Z,0.80
2019-03-31T16:06:36.585Z,0.53
2019-03-31T16:09:22.936Z,0.60
2019-03-31T16:11:54.024Z,0.63
2019-03-31T16:14:27.125Z,0.80
2019-03-31T16:17:00.854Z,0.43
2019-03-31T16:19:37.418Z,0.50
2019-03-31T16:22:11.114Z,0.53
2019-03-31T16:24:52.598Z,0.80
2019-03-31T16:27:26.382Z,0.50
2019-03-31T16:30:09.058Z,0.70
2019-03-31T16:32:42.724Z,0.77
2019-03-31T16:35:16.879Z,0.67
2019-03-31T16:37:50.539Z,0.70
2019-03-31T16:40:29.302Z,0.60
2019-03-31T16:43:03.051Z,0.70
2019-03-31T16:45:38.988Z,0.60
2019-03-31T16:48:12.666Z,0.40
2019-03-31T16:50:58.949Z,0.40
2019-03-31T16:53:32.525Z,0.87
2019-03-31T16:56:09.258Z,0.50
2019-03-31T16:58:48.018Z,0.70
2019-03-31T17:01:21.645Z,0.53
2019-03-31T17:04:00.337Z,0.60
2019-03-31T17:09:10.318Z,0.63
2019-03-31T17:11:44.013Z,0.60
2019-03-31T17:14:17.649Z,0.37
2019-03-31T17:16:51.417Z,0.60
2019-03-31T17:19:26.381Z,0.70
2019-03-31T17:22:00.095Z,0.60
2019-03-31T17:24:40.897Z,0.90
2019-03-31T17:27:14.602Z,0.87
2019-03-31T17:29:48.253Z,0.90
2019-03-31T17:32:40.872Z,0.70
2019-03-31T17:35:14.470Z,0.70
2019-03-31T17:37:49.343Z,1.20
2019-03-31T17:40:23.076Z,0.90
2019-03-31T17:43:06.200Z,1.57
2019-03-31T17:45:39.798Z,1.80
2019-03-31T17:48:21.452Z,2.50
2019-03-31T17:50:55.125Z,2.23
2019-03-31T17:53:28.802Z,2.50
2019-03-31T17:56:02.482Z,1.50
2019-03-31T17:58:42.278Z,1.60
2019-03-31T18:01:15.908Z,1.40
2019-03-31T18:03:59.128Z,1.87
2019-03-31T18:06:32.766Z,2.17
2019-03-31T18:09:10.579Z,1.53
2019-03-31T18:11:44.544Z,1.83
2019-03-31T18:14:25.828Z,1.73
2019-03-31T18:16:59.437Z,2.47
2019-03-31T18:19:37.304Z,2.20
2019-03-31T18:22:16.737Z,2.60
2019-03-31T18:24:50.032Z,2.70
2019-03-31T18:27:23.717Z,2.50
2019-03-31T18:30:04.789Z,2.97
2019-03-31T18:32:38.409Z,2.70
2019-03-31T18:35:16.952Z,2.20
2019-03-31T18:37:51.196Z,2.77
2019-03-31T18:40:35.108Z,3.23
2019-03-31T18:43:05.541Z,4.83
2019-03-31T18:45:41.857Z,4.03
2019-03-31T18:48:15.442Z,2.33
2019-03-31T18:50:51.611Z,2.13
2019-03-31T18:56:32.449Z,1.50
2019-03-31T19:05:04.296Z,1.37
2019-03-31T19:07:39.595Z,1.13
2019-03-31T19:10:28.528Z,1.30
2019-03-31T19:13:21.563Z,0.90
2019-03-31T19:15:57.229Z,2.17
2019-03-31T19:18:38.642Z,1.37
2019-03-31T19:21:16.292Z,1.40
2019-03-31T19:26:49.016Z,1.20
2019-03-31T19:29:33.639Z,1.10
2019-03-31T19:32:09.304Z,1.20
2019-03-31T19:34:47.276Z,1.10
2019-03-31T19:40:19.997Z,1.33
2019-03-31T19:43:17.660Z,1.20
2019-03-31T19:45:52.959Z,1.73
2019-03-31T19:48:52.272Z,1.60
2019-03-31T19:51:27.536Z,1.13
2019-03-31T19:54:14.460Z,1.40
2019-03-31T19:56:52.323Z,1.53
2019-03-31T19:59:36.463Z,1.47
2019-03-31T20:02:31.116Z,1.60
2019-03-31T20:05:22.206Z,1.57
2019-03-31T20:11:14.572Z,1.80
2019-03-31T20:14:04.514Z,1.83
2019-03-31T20:16:55.018Z,1.33
2019-03-31T20:22:43.024Z,1.60
2019-03-31T20:28:08.309Z,2.20
2019-03-31T20:31:00.708Z,1.70
2019-03-31T20:33:38.503Z,1.70
2019-03-31T20:36:29.720Z,2.10
2019-03-31T20:39:15.367Z,1.77
2019-03-31T20:42:04.619Z,1.40
2019-03-31T20:44:47.763Z,1.73
2019-03-31T20:47:21.424Z,2.00
2019-03-31T20:50:08.526Z,1.70
2019-03-31T20:52:42.162Z,1.60
2019-03-31T20:55:17.086Z,1.60
2019-03-31T20:57:50.870Z,1.70
2019-03-31T21:00:34.001Z,1.90
2019-03-31T21:03:17.295Z,1.80
2019-03-31T21:05:50.894Z,1.50
2019-03-31T21:08:28.051Z,1.50
2019-03-31T21:11:01.642Z,1.20
2019-03-31T21:13:35.347Z,1.40
2019-03-31T21:16:18.107Z,1.33
2019-03-31T21:18:51.886Z,1.40
2019-03-31T21:21:29.499Z,1.30
2019-03-31T21:24:03.158Z,1.80
2019-03-31T21:26:49.353Z,2.10
2019-03-31T21:29:22.978Z,2.00
2019-03-31T21:32:01.602Z,1.70
2019-03-31T21:34:35.319Z,2.13
2019-03-31T21:37:18.912Z,1.60
2019-03-31T21:39:52.643Z,1.70
2019-03-31T21:42:31.410Z,1.40
2019-03-31T21:45:07.634Z,1.83
2019-03-31T21:47:48.359Z,1.87
2019-03-31T21:50:22.271Z,2.00
2019-03-31T21:52:59.822Z,1.70
2019-03-31T21:55:33.681Z,1.67
2019-03-31T21:58:07.345Z,1.60
2019-03-31T22:00:48.769Z,1.40
2019-03-31T22:03:27.455Z,1.20
2019-03-31T22:06:01.160Z,1.30
2019-03-31T22:08:41.138Z,1.63
2019-03-31T22:11:14.907Z,1.43
2019-03-31T22:13:51.840Z,1.33
2019-03-31T22:16:25.542Z,1.47
2019-03-31T22:22:06.197Z,1.90
2019-03-31T22:24:40.246Z,1.70
2019-03-31T22:27:18.178Z,1.70
2019-03-31T22:29:51.874Z,2.33
2019-03-31T22:32:25.466Z,2.20
2019-03-31T22:35:06.043Z,2.77
2019-03-31T22:37:39.679Z,2.23
2019-03-31T22:40:22.847Z,2.10
2019-03-31T22:42:56.506Z,2.90
2019-03-31T22:45:30.732Z,2.50
2019-03-31T22:48:04.454Z,2.10
2019-03-31T22:50:38.341Z,2.43
2019-03-31T22:53:11.975Z,1.73
2019-03-31T22:55:47.997Z,2.10
2019-03-31T22:58:21.633Z,2.13
2019-03-31T23:01:04.561Z,2.10
2019-03-31T23:03:38.637Z,2.60
2019-03-31T23:06:15.699Z,2.23
2019-03-31T23:08:49.325Z,2.27
2019-03-31T23:11:25.038Z,2.30
2019-03-31T23:13:59.004Z,2.60
2019-03-31T23:16:32.674Z,2.80
2019-03-31T23:19:24.691Z,2.83
2019-03-31T23:22:05.803Z,2.53
2019-03-31T23:24:39.814Z,2.37
2019-03-31T23:27:13.768Z,2.37
2019-03-31T23:29:47.402Z,2.53
2019-03-31T23:32:22.781Z,2.70
2019-03-31T23:34:56.721Z,2.30
2019-03-31T23:37:52.083Z,2.87
2019-03-31T23:40:25.785Z,2.83
2019-03-31T23:43:07.091Z,2.50
2019-03-31T23:45:40.751Z,2.33
2019-03-31T23:48:41.814Z,2.50
2019-03-31T23:51:15.581Z,3.20
2019-03-31T23:53:49.205Z,2.80
2019-03-31T23:56:26.983Z,2.20
2019-03-31T23:59:00.630Z,3.37
